sensor_id;sensor_type;location;lat;lon;timestamp;P1;durP1;ratioP1;P2;durP2;ratioP2
45274;SDS011;31019;43.780;25.948;2023-07-02T00:02:13;78.22;;;71.90;;
45274;SDS011;31019;43.780;25.948;2023-07-02T00:04:42;65.82;;;59.58;;
45274;SDS011;31019;43.780;25.948;2023-07-02T00:07:11;62.30;;;56.45;;
45274;SDS011;31019;43.780;25.948;2023-07-02T00:09:37;69.30;;;63.20;;
45274;SDS011;31019;43.780;25.948;2023-07-02T00:12:05;60.33;;;54.13;;
45274;SDS011;31019;43.780;25.948;2023-07-02T00:14:32;68.18;;;62.10;;
45274;SDS011;31019;43.780;25.948;2023-07-02T00:16:59;62.33;;;56.47;;
45274;SDS011;31019;43.780;25.948;2023-07-02T00:19:26;70.28;;;63.78;;
45274;SDS011;31019;43.780;25.948;2023-07-02T00:21:53;71.57;;;65.38;;
45274;SDS011;31019;43.780;25.948;2023-07-02T00:24:22;71.07;;;64.93;;
45274;SDS011;31019;43.780;25.948;2023-07-02T00:26:49;62.65;;;57.05;;
45274;SDS011;31019;43.780;25.948;2023-07-02T00:29:16;67.60;;;61.17;;
45274;SDS011;31019;43.780;25.948;2023-07-02T00:31:43;74.43;;;67.72;;
45274;SDS011;31019;43.780;25.948;2023-07-02T00:34:10;76.25;;;69.55;;
45274;SDS011;31019;43.780;25.948;2023-07-02T00:36:37;74.97;;;68.20;;
45274;SDS011;31019;43.780;25.948;2023-07-02T00:39:04;72.03;;;65.55;;
45274;SDS011;31019;43.780;25.948;2023-07-02T00:41:32;70.78;;;64.72;;
45274;SDS011;31019;43.780;25.948;2023-07-02T00:43:59;74.07;;;67.45;;
45274;SDS011;31019;43.780;25.948;2023-07-02T00:46:26;69.90;;;63.25;;
45274;SDS011;31019;43.780;25.948;2023-07-02T00:48:53;73.90;;;67.20;;
45274;SDS011;31019;43.780;25.948;2023-07-02T00:51:21;69.95;;;63.72;;
45274;SDS011;31019;43.780;25.948;2023-07-02T00:53:50;61.30;;;55.80;;
45274;SDS011;31019;43.780;25.948;2023-07-02T00:56:18;63.55;;;57.58;;
45274;SDS011;31019;43.780;25.948;2023-07-02T00:58:47;63.47;;;57.88;;
45274;SDS011;31019;43.780;25.948;2023-07-02T01:01:15;67.60;;;61.67;;
45274;SDS011;31019;43.780;25.948;2023-07-02T01:03:52;65.68;;;59.50;;
45274;SDS011;31019;43.780;25.948;2023-07-02T01:06:22;68.63;;;62.30;;
45274;SDS011;31019;43.780;25.948;2023-07-02T01:08:52;85.65;;;78.20;;
45274;SDS011;31019;43.780;25.948;2023-07-02T01:11:20;86.68;;;79.03;;
45274;SDS011;31019;43.780;25.948;2023-07-02T01:13:53;67.43;;;61.22;;
45274;SDS011;31019;43.780;25.948;2023-07-02T01:16:23;66.60;;;59.40;;
45274;SDS011;31019;43.780;25.948;2023-07-02T01:18:50;73.43;;;66.53;;
45274;SDS011;31019;43.780;25.948;2023-07-02T01:21:21;75.30;;;68.50;;
45274;SDS011;31019;43.780;25.948;2023-07-02T01:23:50;72.18;;;65.18;;
45274;SDS011;31019;43.780;25.948;2023-07-02T01:26:18;93.70;;;85.63;;
45274;SDS011;31019;43.780;25.948;2023-07-02T01:28:45;79.40;;;72.40;;
45274;SDS011;31019;43.780;25.948;2023-07-02T01:31:12;89.53;;;81.85;;
45274;SDS011;31019;43.780;25.948;2023-07-02T01:33:39;75.88;;;68.75;;
45274;SDS011;31019;43.780;25.948;2023-07-02T01:36:06;87.82;;;79.93;;
45274;SDS011;31019;43.780;25.948;2023-07-02T01:38:35;104.50;;;96.00;;
45274;SDS011;31019;43.780;25.948;2023-07-02T01:41:02;91.50;;;83.70;;
45274;SDS011;31019;43.780;25.948;2023-07-02T01:43:28;77.03;;;70.03;;
45274;SDS011;31019;43.780;25.948;2023-07-02T01:45:56;89.28;;;80.82;;
45274;SDS011;31019;43.780;25.948;2023-07-02T01:48:24;83.20;;;75.68;;
45274;SDS011;31019;43.780;25.948;2023-07-02T01:50:51;85.68;;;77.85;;
45274;SDS011;31019;43.780;25.948;2023-07-02T01:53:18;85.00;;;77.60;;
45274;SDS011;31019;43.780;25.948;2023-07-02T01:55:46;84.78;;;77.43;;
45274;SDS011;31019;43.780;25.948;2023-07-02T01:58:14;118.32;;;108.70;;
45274;SDS011;31019;43.780;25.948;2023-07-02T02:00:41;75.88;;;68.85;;
45274;SDS011;31019;43.780;25.948;2023-07-02T02:03:08;80.50;;;73.13;;
45274;SDS011;31019;43.780;25.948;2023-07-02T02:05:35;84.82;;;77.68;;
45274;SDS011;31019;43.780;25.948;2023-07-02T02:08:02;91.15;;;83.55;;
45274;SDS011;31019;43.780;25.948;2023-07-02T02:10:29;92.20;;;84.18;;
45274;SDS011;31019;43.780;25.948;2023-07-02T02:12:57;103.18;;;94.38;;
45274;SDS011;31019;43.780;25.948;2023-07-02T02:15:24;100.65;;;92.32;;
45274;SDS011;31019;43.780;25.948;2023-07-02T02:17:51;88.85;;;80.72;;
45274;SDS011;31019;43.780;25.948;2023-07-02T02:20:18;92.63;;;84.55;;
45274;SDS011;31019;43.780;25.948;2023-07-02T02:22:45;99.63;;;91.53;;
45274;SDS011;31019;43.780;25.948;2023-07-02T02:25:12;104.07;;;95.47;;
45274;SDS011;31019;43.780;25.948;2023-07-02T02:27:39;81.07;;;73.40;;
45274;SDS011;31019;43.780;25.948;2023-07-02T02:30:08;68.97;;;62.42;;
45274;SDS011;31019;43.780;25.948;2023-07-02T02:32:35;67.78;;;61.47;;
45274;SDS011;31019;43.780;25.948;2023-07-02T02:35:02;65.50;;;59.40;;
45274;SDS011;31019;43.780;25.948;2023-07-02T02:37:29;70.45;;;63.60;;
45274;SDS011;31019;43.780;25.948;2023-07-02T02:39:57;71.75;;;65.35;;
45274;SDS011;31019;43.780;25.948;2023-07-02T02:42:24;72.30;;;65.85;;
45274;SDS011;31019;43.780;25.948;2023-07-02T02:44:51;71.93;;;65.57;;
45274;SDS011;31019;43.780;25.948;2023-07-02T02:47:20;70.65;;;64.00;;
45274;SDS011;31019;43.780;25.948;2023-07-02T02:49:47;84.35;;;76.97;;
45274;SDS011;31019;43.780;25.948;2023-07-02T02:52:14;75.60;;;69.00;;
45274;SDS011;31019;43.780;25.948;2023-07-02T02:54:40;75.13;;;68.13;;
45274;SDS011;31019;43.780;25.948;2023-07-02T02:57:07;71.18;;;64.97;;
45274;SDS011;31019;43.780;25.948;2023-07-02T02:59:34;73.38;;;66.88;;
45274;SDS011;31019;43.780;25.948;2023-07-02T03:02:02;69.07;;;62.47;;
45274;SDS011;31019;43.780;25.948;2023-07-02T03:04:30;75.53;;;68.82;;
45274;SDS011;31019;43.780;25.948;2023-07-02T03:06:57;86.20;;;79.35;;
45274;SDS011;31019;43.780;25.948;2023-07-02T03:09:24;95.72;;;88.50;;
45274;SDS011;31019;43.780;25.948;2023-07-02T03:11:51;77.70;;;71.13;;
45274;SDS011;31019;43.780;25.948;2023-07-02T03:14:18;82.05;;;75.22;;
45274;SDS011;31019;43.780;25.948;2023-07-02T03:16:44;71.40;;;64.90;;
45274;SDS011;31019;43.780;25.948;2023-07-02T03:19:11;67.68;;;61.65;;
45274;SDS011;31019;43.780;25.948;2023-07-02T03:21:42;64.88;;;59.05;;
45274;SDS011;31019;43.780;25.948;2023-07-02T03:24:09;64.60;;;58.63;;
45274;SDS011;31019;43.780;25.948;2023-07-02T03:26:38;63.30;;;57.67;;
45274;SDS011;31019;43.780;25.948;2023-07-02T03:29:05;66.40;;;60.63;;
45274;SDS011;31019;43.780;25.948;2023-07-02T03:31:33;64.30;;;58.60;;
45274;SDS011;31019;43.780;25.948;2023-07-02T03:34:01;67.20;;;61.17;;
45274;SDS011;31019;43.780;25.948;2023-07-02T03:36:30;63.92;;;57.88;;
45274;SDS011;31019;43.780;25.948;2023-07-02T03:38:58;71.70;;;65.25;;
45274;SDS011;31019;43.780;25.948;2023-07-02T03:41:25;66.40;;;60.10;;
45274;SDS011;31019;43.780;25.948;2023-07-02T03:43:52;72.85;;;66.57;;
45274;SDS011;31019;43.780;25.948;2023-07-02T03:46:19;71.50;;;65.05;;
45274;SDS011;31019;43.780;25.948;2023-07-02T03:48:46;79.30;;;72.50;;
45274;SDS011;31019;43.780;25.948;2023-07-02T03:51:12;70.13;;;63.97;;
45274;SDS011;31019;43.780;25.948;2023-07-02T03:53:40;66.38;;;60.58;;
45274;SDS011;31019;43.780;25.948;2023-07-02T03:56:09;68.88;;;62.88;;
45274;SDS011;31019;43.780;25.948;2023-07-02T03:58:36;73.22;;;66.63;;
45274;SDS011;31019;43.780;25.948;2023-07-02T04:01:02;71.53;;;65.45;;
45274;SDS011;31019;43.780;25.948;2023-07-02T04:03:29;72.43;;;66.15;;
45274;SDS011;31019;43.780;25.948;2023-07-02T04:05:56;69.65;;;63.80;;
45274;SDS011;31019;43.780;25.948;2023-07-02T04:08:23;70.68;;;64.45;;
45274;SDS011;31019;43.780;25.948;2023-07-02T04:10:50;70.15;;;64.28;;
45274;SDS011;31019;43.780;25.948;2023-07-02T04:13:19;70.45;;;64.50;;
45274;SDS011;31019;43.780;25.948;2023-07-02T04:15:48;67.88;;;62.08;;
45274;SDS011;31019;43.780;25.948;2023-07-02T04:18:15;67.30;;;61.70;;
45274;SDS011;31019;43.780;25.948;2023-07-02T04:20:42;64.68;;;59.08;;
45274;SDS011;31019;43.780;25.948;2023-07-02T04:23:08;63.42;;;58.03;;
45274;SDS011;31019;43.780;25.948;2023-07-02T04:25:35;61.30;;;56.30;;
45274;SDS011;31019;43.780;25.948;2023-07-02T04:28:02;65.40;;;59.67;;
45274;SDS011;31019;43.780;25.948;2023-07-02T04:30:31;63.30;;;58.05;;
45274;SDS011;31019;43.780;25.948;2023-07-02T04:32:58;65.35;;;60.25;;
45274;SDS011;31019;43.780;25.948;2023-07-02T04:35:25;65.45;;;60.00;;
45274;SDS011;31019;43.780;25.948;2023-07-02T04:37:52;61.83;;;56.72;;
45274;SDS011;31019;43.780;25.948;2023-07-02T04:40:19;62.17;;;57.22;;
45274;SDS011;31019;43.780;25.948;2023-07-02T04:42:45;60.72;;;55.72;;
45274;SDS011;31019;43.780;25.948;2023-07-02T04:45:13;57.67;;;53.08;;
45274;SDS011;31019;43.780;25.948;2023-07-02T04:47:43;55.65;;;51.03;;
45274;SDS011;31019;43.780;25.948;2023-07-02T04:50:10;52.88;;;48.17;;
45274;SDS011;31019;43.780;25.948;2023-07-02T04:52:37;53.10;;;48.78;;
45274;SDS011;31019;43.780;25.948;2023-07-02T04:55:05;57.38;;;52.67;;
45274;SDS011;31019;43.780;25.948;2023-07-02T04:57:32;51.13;;;46.90;;
45274;SDS011;31019;43.780;25.948;2023-07-02T04:59:59;48.30;;;44.30;;
45274;SDS011;31019;43.780;25.948;2023-07-02T05:02:26;47.65;;;43.40;;
45274;SDS011;31019;43.780;25.948;2023-07-02T05:04:54;46.70;;;43.20;;
45274;SDS011;31019;43.780;25.948;2023-07-02T05:07:21;46.63;;;42.72;;
45274;SDS011;31019;43.780;25.948;2023-07-02T05:09:48;46.90;;;43.22;;
45274;SDS011;31019;43.780;25.948;2023-07-02T05:12:17;43.90;;;40.40;;
45274;SDS011;31019;43.780;25.948;2023-07-02T05:14:44;45.58;;;41.97;;
45274;SDS011;31019;43.780;25.948;2023-07-02T05:17:11;38.45;;;35.25;;
45274;SDS011;31019;43.780;25.948;2023-07-02T05:19:40;38.35;;;35.33;;
45274;SDS011;31019;43.780;25.948;2023-07-02T05:22:08;37.72;;;34.63;;
45274;SDS011;31019;43.780;25.948;2023-07-02T05:24:36;37.03;;;33.72;;
45274;SDS011;31019;43.780;25.948;2023-07-02T05:27:03;35.47;;;32.33;;
45274;SDS011;31019;43.780;25.948;2023-07-02T05:29:30;34.95;;;31.95;;
45274;SDS011;31019;43.780;25.948;2023-07-02T05:31:57;34.50;;;31.35;;
45274;SDS011;31019;43.780;25.948;2023-07-02T05:34:24;34.95;;;32.15;;
45274;SDS011;31019;43.780;25.948;2023-07-02T05:36:51;33.25;;;30.55;;
45274;SDS011;31019;43.780;25.948;2023-07-02T05:39:19;31.55;;;29.05;;
45274;SDS011;31019;43.780;25.948;2023-07-02T05:41:47;32.60;;;30.10;;
45274;SDS011;31019;43.780;25.948;2023-07-02T05:44:14;30.83;;;28.30;;
45274;SDS011;31019;43.780;25.948;2023-07-02T05:46:42;29.98;;;27.45;;
45274;SDS011;31019;43.780;25.948;2023-07-02T05:49:09;29.52;;;27.08;;
45274;SDS011;31019;43.780;25.948;2023-07-02T05:51:36;29.02;;;26.73;;
45274;SDS011;31019;43.780;25.948;2023-07-02T05:54:02;28.88;;;26.45;;
45274;SDS011;31019;43.780;25.948;2023-07-02T05:56:31;29.30;;;26.80;;
45274;SDS011;31019;43.780;25.948;2023-07-02T05:58:58;29.02;;;26.35;;
45274;SDS011;31019;43.780;25.948;2023-07-02T06:01:24;27.90;;;25.50;;
45274;SDS011;31019;43.780;25.948;2023-07-02T06:03:52;27.38;;;25.17;;
45274;SDS011;31019;43.780;25.948;2023-07-02T06:06:20;28.58;;;26.10;;
45274;SDS011;31019;43.780;25.948;2023-07-02T06:08:47;28.90;;;26.45;;
45274;SDS011;31019;43.780;25.948;2023-07-02T06:11:14;25.80;;;23.70;;
45274;SDS011;31019;43.780;25.948;2023-07-02T06:13:42;26.23;;;24.05;;
45274;SDS011;31019;43.780;25.948;2023-07-02T06:16:10;27.80;;;25.50;;
45274;SDS011;31019;43.780;25.948;2023-07-02T06:18:37;25.90;;;23.60;;
45274;SDS011;31019;43.780;25.948;2023-07-02T06:21:04;26.40;;;23.83;;
45274;SDS011;31019;43.780;25.948;2023-07-02T06:23:38;26.20;;;24.10;;
45274;SDS011;31019;43.780;25.948;2023-07-02T06:26:06;26.40;;;24.20;;
45274;SDS011;31019;43.780;25.948;2023-07-02T06:28:33;25.92;;;23.38;;
45274;SDS011;31019;43.780;25.948;2023-07-02T06:31:01;25.55;;;23.25;;
45274;SDS011;31019;43.780;25.948;2023-07-02T06:33:28;28.90;;;26.60;;
45274;SDS011;31019;43.780;25.948;2023-07-02T06:35:55;29.23;;;26.73;;
45274;SDS011;31019;43.780;25.948;2023-07-02T06:38:22;28.58;;;25.88;;
45274;SDS011;31019;43.780;25.948;2023-07-02T06:40:49;28.80;;;25.75;;
45274;SDS011;31019;43.780;25.948;2023-07-02T06:43:16;29.35;;;26.77;;
45274;SDS011;31019;43.780;25.948;2023-07-02T06:45:43;33.83;;;30.50;;
45274;SDS011;31019;43.780;25.948;2023-07-02T06:48:11;33.25;;;30.25;;
45274;SDS011;31019;43.780;25.948;2023-07-02T06:50:42;34.78;;;31.42;;
45274;SDS011;31019;43.780;25.948;2023-07-02T06:53:09;34.78;;;31.42;;
45274;SDS011;31019;43.780;25.948;2023-07-02T06:55:36;34.50;;;31.25;;
45274;SDS011;31019;43.780;25.948;2023-07-02T06:58:04;31.20;;;28.60;;
45274;SDS011;31019;43.780;25.948;2023-07-02T07:00:31;30.08;;;27.45;;
45274;SDS011;31019;43.780;25.948;2023-07-02T07:03:00;31.83;;;28.75;;
45274;SDS011;31019;43.780;25.948;2023-07-02T07:05:29;28.80;;;26.23;;
45274;SDS011;31019;43.780;25.948;2023-07-02T07:07:56;26.67;;;24.33;;
45274;SDS011;31019;43.780;25.948;2023-07-02T07:10:24;29.77;;;27.27;;
45274;SDS011;31019;43.780;25.948;2023-07-02T07:12:50;31.77;;;29.27;;
45274;SDS011;31019;43.780;25.948;2023-07-02T07:15:17;31.23;;;28.52;;
45274;SDS011;31019;43.780;25.948;2023-07-02T07:17:44;30.90;;;28.00;;
45274;SDS011;31019;43.780;25.948;2023-07-02T07:20:11;29.58;;;27.05;;
45274;SDS011;31019;43.780;25.948;2023-07-02T07:22:40;29.48;;;26.92;;
45274;SDS011;31019;43.780;25.948;2023-07-02T07:25:08;30.13;;;27.52;;
45274;SDS011;31019;43.780;25.948;2023-07-02T07:27:35;30.83;;;28.27;;
45274;SDS011;31019;43.780;25.948;2023-07-02T07:30:02;31.75;;;29.08;;
45274;SDS011;31019;43.780;25.948;2023-07-02T07:32:29;28.30;;;26.00;;
45274;SDS011;31019;43.780;25.948;2023-07-02T07:34:56;29.50;;;26.88;;
45274;SDS011;31019;43.780;25.948;2023-07-02T07:37:24;29.75;;;27.05;;
45274;SDS011;31019;43.780;25.948;2023-07-02T07:39:52;29.17;;;26.67;;
45274;SDS011;31019;43.780;25.948;2023-07-02T07:42:20;29.35;;;26.95;;
45274;SDS011;31019;43.780;25.948;2023-07-02T07:44:46;30.30;;;27.70;;
45274;SDS011;31019;43.780;25.948;2023-07-02T07:47:13;30.67;;;28.23;;
45274;SDS011;31019;43.780;25.948;2023-07-02T07:49:40;30.10;;;27.13;;
45274;SDS011;31019;43.780;25.948;2023-07-02T07:52:07;28.02;;;25.45;;
45274;SDS011;31019;43.780;25.948;2023-07-02T07:54:34;29.15;;;26.65;;
45274;SDS011;31019;43.780;25.948;2023-07-02T07:57:03;27.52;;;25.13;;
45274;SDS011;31019;43.780;25.948;2023-07-02T07:59:30;28.55;;;26.13;;
45274;SDS011;31019;43.780;25.948;2023-07-02T08:01:57;28.98;;;26.30;;
45274;SDS011;31019;43.780;25.948;2023-07-02T08:04:24;30.88;;;27.88;;
45274;SDS011;31019;43.780;25.948;2023-07-02T08:06:52;31.13;;;28.27;;
45274;SDS011;31019;43.780;25.948;2023-07-02T08:09:20;30.58;;;28.02;;
45274;SDS011;31019;43.780;25.948;2023-07-02T08:11:47;30.25;;;27.48;;
45274;SDS011;31019;43.780;25.948;2023-07-02T08:14:15;28.88;;;26.38;;
45274;SDS011;31019;43.780;25.948;2023-07-02T08:16:43;31.77;;;28.73;;
45274;SDS011;31019;43.780;25.948;2023-07-02T08:19:10;32.08;;;28.95;;
45274;SDS011;31019;43.780;25.948;2023-07-02T08:21:38;43.42;;;38.97;;
45274;SDS011;31019;43.780;25.948;2023-07-02T08:24:05;30.48;;;27.58;;
45274;SDS011;31019;43.780;25.948;2023-07-02T08:26:32;33.85;;;30.85;;
45274;SDS011;31019;43.780;25.948;2023-07-02T08:28:59;34.50;;;31.65;;
45274;SDS011;31019;43.780;25.948;2023-07-02T08:31:27;34.47;;;31.42;;
45274;SDS011;31019;43.780;25.948;2023-07-02T08:33:54;36.00;;;32.88;;
45274;SDS011;31019;43.780;25.948;2023-07-02T08:36:21;32.45;;;29.55;;
45274;SDS011;31019;43.780;25.948;2023-07-02T08:38:48;32.08;;;29.27;;
45274;SDS011;31019;43.780;25.948;2023-07-02T08:41:17;33.60;;;30.38;;
45274;SDS011;31019;43.780;25.948;2023-07-02T08:43:44;33.70;;;30.95;;
45274;SDS011;31019;43.780;25.948;2023-07-02T08:46:11;36.47;;;32.88;;
45274;SDS011;31019;43.780;25.948;2023-07-02T08:48:39;34.22;;;31.45;;
45274;SDS011;31019;43.780;25.948;2023-07-02T08:51:07;33.38;;;30.48;;
45274;SDS011;31019;43.780;25.948;2023-07-02T08:53:34;31.88;;;28.90;;
45274;SDS011;31019;43.780;25.948;2023-07-02T08:56:01;33.30;;;30.40;;
45274;SDS011;31019;43.780;25.948;2023-07-02T08:58:29;36.13;;;32.58;;
45274;SDS011;31019;43.780;25.948;2023-07-02T09:01:06;37.95;;;33.97;;
45274;SDS011;31019;43.780;25.948;2023-07-02T09:03:34;40.00;;;35.80;;
45274;SDS011;31019;43.780;25.948;2023-07-02T09:06:03;41.42;;;37.63;;
45274;SDS011;31019;43.780;25.948;2023-07-02T09:08:31;35.55;;;32.55;;
45274;SDS011;31019;43.780;25.948;2023-07-02T09:11:06;40.63;;;37.03;;
45274;SDS011;31019;43.780;25.948;2023-07-02T09:13:46;43.25;;;39.35;;
45274;SDS011;31019;43.780;25.948;2023-07-02T09:19:00;56.80;;;52.30;;
45274;SDS011;31019;43.780;25.948;2023-07-02T09:21:38;48.25;;;43.75;;
45274;SDS011;31019;43.780;25.948;2023-07-02T09:24:14;61.08;;;48.22;;
45274;SDS011;31019;43.780;25.948;2023-07-02T09:26:44;53.42;;;48.50;;
45274;SDS011;31019;43.780;25.948;2023-07-02T09:29:11;44.85;;;40.85;;
45274;SDS011;31019;43.780;25.948;2023-07-02T09:31:45;43.35;;;39.72;;
45274;SDS011;31019;43.780;25.948;2023-07-02T09:34:12;44.85;;;40.95;;
45274;SDS011;31019;43.780;25.948;2023-07-02T09:39:31;44.08;;;39.58;;
45274;SDS011;31019;43.780;25.948;2023-07-02T09:42:02;39.60;;;35.85;;
45274;SDS011;31019;43.780;25.948;2023-07-02T09:44:36;39.15;;;35.85;;
45274;SDS011;31019;43.780;25.948;2023-07-02T09:47:10;32.95;;;29.77;;
45274;SDS011;31019;43.780;25.948;2023-07-02T09:49:40;32.13;;;29.38;;
45274;SDS011;31019;43.780;25.948;2023-07-02T09:54:48;28.52;;;25.92;;
45274;SDS011;31019;43.780;25.948;2023-07-02T09:57:15;34.72;;;31.63;;
45274;SDS011;31019;43.780;25.948;2023-07-02T09:59:42;38.05;;;34.60;;
45274;SDS011;31019;43.780;25.948;2023-07-02T10:02:10;37.25;;;33.85;;
45274;SDS011;31019;43.780;25.948;2023-07-02T10:04:40;33.03;;;30.13;;
45274;SDS011;31019;43.780;25.948;2023-07-02T10:07:08;31.50;;;28.65;;
45274;SDS011;31019;43.780;25.948;2023-07-02T10:09:44;30.52;;;27.77;;
45274;SDS011;31019;43.780;25.948;2023-07-02T10:12:19;27.90;;;25.30;;
45274;SDS011;31019;43.780;25.948;2023-07-02T10:14:47;28.63;;;26.10;;
45274;SDS011;31019;43.780;25.948;2023-07-02T10:17:31;29.13;;;26.83;;
45274;SDS011;31019;43.780;25.948;2023-07-02T10:20:02;30.73;;;28.27;;
45274;SDS011;31019;43.780;25.948;2023-07-02T10:25:09;30.30;;;27.80;;
45274;SDS011;31019;43.780;25.948;2023-07-02T10:27:37;30.02;;;27.83;;
45274;SDS011;31019;43.780;25.948;2023-07-02T10:33:08;26.00;;;24.00;;
45274;SDS011;31019;43.780;25.948;2023-07-02T10:35:37;25.23;;;23.23;;
45274;SDS011;31019;43.780;25.948;2023-07-02T10:38:04;23.83;;;22.02;;
45274;SDS011;31019;43.780;25.948;2023-07-02T10:40:33;24.05;;;22.33;;
45274;SDS011;31019;43.780;25.948;2023-07-02T10:43:00;24.10;;;22.33;;
45274;SDS011;31019;43.780;25.948;2023-07-02T10:45:30;23.83;;;22.02;;
45274;SDS011;31019;43.780;25.948;2023-07-02T10:47:58;24.05;;;22.05;;
45274;SDS011;31019;43.780;25.948;2023-07-02T10:50:33;24.40;;;22.52;;
45274;SDS011;31019;43.780;25.948;2023-07-02T10:53:00;26.10;;;24.05;;
45274;SDS011;31019;43.780;25.948;2023-07-02T10:55:35;26.85;;;24.75;;
45274;SDS011;31019;43.780;25.948;2023-07-02T10:58:02;25.80;;;23.58;;
45274;SDS011;31019;43.780;25.948;2023-07-02T11:00:31;26.88;;;24.55;;
45274;SDS011;31019;43.780;25.948;2023-07-02T11:03:02;26.00;;;23.95;;
45274;SDS011;31019;43.780;25.948;2023-07-02T11:05:29;25.42;;;23.33;;
45274;SDS011;31019;43.780;25.948;2023-07-02T11:08:05;25.02;;;22.92;;
45274;SDS011;31019;43.780;25.948;2023-07-02T11:10:36;22.88;;;20.98;;
45274;SDS011;31019;43.780;25.948;2023-07-02T11:13:12;22.58;;;20.60;;
45274;SDS011;31019;43.780;25.948;2023-07-02T11:15:40;23.30;;;21.30;;
45274;SDS011;31019;43.780;25.948;2023-07-02T11:18:10;25.77;;;23.77;;
45274;SDS011;31019;43.780;25.948;2023-07-02T11:24:30;27.13;;;24.48;;
45274;SDS011;31019;43.780;25.948;2023-07-02T11:27:00;25.10;;;22.95;;
45274;SDS011;31019;43.780;25.948;2023-07-02T11:29:28;25.25;;;23.25;;
45274;SDS011;31019;43.780;25.948;2023-07-02T11:32:04;24.13;;;22.33;;
45274;SDS011;31019;43.780;25.948;2023-07-02T11:34:31;26.92;;;24.83;;
45274;SDS011;31019;43.780;25.948;2023-07-02T11:36:58;25.33;;;23.17;;
45274;SDS011;31019;43.780;25.948;2023-07-02T11:39:25;26.85;;;24.75;;
45274;SDS011;31019;43.780;25.948;2023-07-02T11:42:01;29.33;;;27.08;;
45274;SDS011;31019;43.780;25.948;2023-07-02T11:44:28;25.33;;;23.42;;
45274;SDS011;31019;43.780;25.948;2023-07-02T11:46:55;26.40;;;24.42;;
45274;SDS011;31019;43.780;25.948;2023-07-02T11:49:22;25.50;;;23.50;;
45274;SDS011;31019;43.780;25.948;2023-07-02T11:51:49;26.17;;;23.73;;
45274;SDS011;31019;43.780;25.948;2023-07-02T11:54:16;25.00;;;23.00;;
45274;SDS011;31019;43.780;25.948;2023-07-02T11:56:44;24.77;;;22.70;;
45274;SDS011;31019;43.780;25.948;2023-07-02T11:59:13;26.35;;;24.25;;
45274;SDS011;31019;43.780;25.948;2023-07-02T12:01:40;26.77;;;24.58;;
45274;SDS011;31019;43.780;25.948;2023-07-02T12:04:09;26.02;;;24.13;;
45274;SDS011;31019;43.780;25.948;2023-07-02T12:06:37;25.38;;;23.42;;
45274;SDS011;31019;43.780;25.948;2023-07-02T12:09:05;26.02;;;24.00;;
45274;SDS011;31019;43.780;25.948;2023-07-02T12:14:31;27.70;;;25.40;;
45274;SDS011;31019;43.780;25.948;2023-07-02T12:17:00;26.52;;;24.33;;
45274;SDS011;31019;43.780;25.948;2023-07-02T12:22:12;29.13;;;26.40;;
45274;SDS011;31019;43.780;25.948;2023-07-02T12:24:51;29.10;;;26.90;;
45274;SDS011;31019;43.780;25.948;2023-07-02T12:27:23;28.65;;;26.30;;
45274;SDS011;31019;43.780;25.948;2023-07-02T12:30:06;28.60;;;26.30;;
45274;SDS011;31019;43.780;25.948;2023-07-02T12:32:34;27.98;;;25.58;;
45274;SDS011;31019;43.780;25.948;2023-07-02T12:35:01;27.30;;;24.75;;
45274;SDS011;31019;43.780;25.948;2023-07-02T12:37:31;26.88;;;24.77;;
45274;SDS011;31019;43.780;25.948;2023-07-02T12:39:58;24.30;;;22.27;;
45274;SDS011;31019;43.780;25.948;2023-07-02T12:42:25;26.02;;;24.13;;
45274;SDS011;31019;43.780;25.948;2023-07-02T12:44:52;26.70;;;24.50;;
45274;SDS011;31019;43.780;25.948;2023-07-02T12:47:28;24.15;;;22.10;;
45274;SDS011;31019;43.780;25.948;2023-07-02T12:49:55;25.23;;;23.23;;
45274;SDS011;31019;43.780;25.948;2023-07-02T12:52:22;26.13;;;24.02;;
45274;SDS011;31019;43.780;25.948;2023-07-02T12:54:48;27.00;;;24.88;;
45274;SDS011;31019;43.780;25.948;2023-07-02T12:57:16;26.95;;;24.52;;
45274;SDS011;31019;43.780;25.948;2023-07-02T12:59:43;27.63;;;25.73;;
45274;SDS011;31019;43.780;25.948;2023-07-02T13:02:11;27.75;;;25.67;;
45274;SDS011;31019;43.780;25.948;2023-07-02T13:04:39;27.90;;;26.00;;
45274;SDS011;31019;43.780;25.948;2023-07-02T13:07:06;26.95;;;24.95;;
45274;SDS011;31019;43.780;25.948;2023-07-02T13:09:33;24.98;;;22.98;;
45274;SDS011;31019;43.780;25.948;2023-07-02T13:12:00;24.95;;;23.00;;
45274;SDS011;31019;43.780;25.948;2023-07-02T13:14:27;27.08;;;25.17;;
45274;SDS011;31019;43.780;25.948;2023-07-02T13:16:54;26.65;;;24.63;;
45274;SDS011;31019;43.780;25.948;2023-07-02T13:19:20;25.98;;;23.88;;
45274;SDS011;31019;43.780;25.948;2023-07-02T13:21:49;26.55;;;24.65;;
45274;SDS011;31019;43.780;25.948;2023-07-02T13:24:16;27.58;;;25.40;;
45274;SDS011;31019;43.780;25.948;2023-07-02T13:26:42;27.08;;;25.00;;
45274;SDS011;31019;43.780;25.948;2023-07-02T13:29:09;26.40;;;24.40;;
45274;SDS011;31019;43.780;25.948;2023-07-02T13:31:36;25.73;;;23.92;;
45274;SDS011;31019;43.780;25.948;2023-07-02T13:34:03;28.67;;;26.67;;
45274;SDS011;31019;43.780;25.948;2023-07-02T13:36:30;27.17;;;25.15;;
45274;SDS011;31019;43.780;25.948;2023-07-02T13:38:58;25.65;;;23.75;;
45274;SDS011;31019;43.780;25.948;2023-07-02T13:41:25;24.75;;;22.67;;
45274;SDS011;31019;43.780;25.948;2023-07-02T13:43:55;28.02;;;25.83;;
45274;SDS011;31019;43.780;25.948;2023-07-02T13:46:22;28.08;;;25.88;;
45274;SDS011;31019;43.780;25.948;2023-07-02T13:48:49;26.92;;;24.73;;
45274;SDS011;31019;43.780;25.948;2023-07-02T13:51:16;26.23;;;24.25;;
45274;SDS011;31019;43.780;25.948;2023-07-02T13:53:43;25.80;;;23.75;;
45274;SDS011;31019;43.780;25.948;2023-07-02T13:56:11;25.90;;;24.00;;
45274;SDS011;31019;43.780;25.948;2023-07-02T14:01:30;28.08;;;25.98;;
45274;SDS011;31019;43.780;25.948;2023-07-02T14:03:57;26.55;;;24.45;;
45274;SDS011;31019;43.780;25.948;2023-07-02T14:06:24;26.20;;;24.30;;
45274;SDS011;31019;43.780;25.948;2023-07-02T14:08:51;28.95;;;26.65;;
45274;SDS011;31019;43.780;25.948;2023-07-02T14:11:18;26.15;;;24.23;;
45274;SDS011;31019;43.780;25.948;2023-07-02T14:13:46;28.08;;;25.88;;
45274;SDS011;31019;43.780;25.948;2023-07-02T14:16:14;29.05;;;27.05;;
45274;SDS011;31019;43.780;25.948;2023-07-02T14:18:42;25.70;;;23.65;;
45274;SDS011;31019;43.780;25.948;2023-07-02T14:21:09;27.17;;;25.00;;
45274;SDS011;31019;43.780;25.948;2023-07-02T14:23:36;28.00;;;25.80;;
45274;SDS011;31019;43.780;25.948;2023-07-02T14:26:03;26.15;;;24.35;;
45274;SDS011;31019;43.780;25.948;2023-07-02T14:28:30;27.13;;;25.33;;
45274;SDS011;31019;43.780;25.948;2023-07-02T14:30:57;28.35;;;26.05;;
45274;SDS011;31019;43.780;25.948;2023-07-02T14:33:27;29.95;;;27.80;;
45274;SDS011;31019;43.780;25.948;2023-07-02T14:35:59;27.65;;;25.65;;
45274;SDS011;31019;43.780;25.948;2023-07-02T14:38:26;26.98;;;24.83;;
45274;SDS011;31019;43.780;25.948;2023-07-02T14:40:54;27.70;;;25.60;;